sensor_id;sensor_type;location;lat;lon;timestamp;temperature;humidity
1888;DHT22;944;51.574;6.980;2024-02-26T09:47:26;4.90;99.90
1888;DHT22;944;51.574;6.980;2024-02-26T09:54:15;5.00;29.30
1888;DHT22;944;51.574;6.980;2024-02-26T09:56:50;5.00;1.00
1888;DHT22;944;51.574;6.980;2024-02-26T09:59:18;5.00;1.00
1888;DHT22;944;51.574;6.980;2024-02-26T10:02:04;5.00;99.90
1888;DHT22;944;51.574;6.980;2024-02-26T10:04:32;5.10;1.00
1888;DHT22;944;51.574;6.980;2024-02-26T10:07:00;5.00;1.00
1888;DHT22;944;51.574;6.980;2024-02-26T10:09:29;5.10;1.00
1888;DHT22;944;51.574;6.980;2024-02-26T10:12:10;5.00;1.00
1888;DHT22;944;51.574;6.980;2024-02-26T10:14:48;5.10;1.00
1888;DHT22;944;51.574;6.980;2024-02-26T10:17:17;5.10;99.90
1888;DHT22;944;51.574;6.980;2024-02-26T10:19:50;5.10;99.90
1888;DHT22;944;51.574;6.980;2024-02-26T10:22:22;5.20;1.00
1888;DHT22;944;51.574;6.980;2024-02-26T10:24:54;5.20;99.90
1888;DHT22;944;51.574;6.980;2024-02-26T10:27:22;5.20;99.90
1888;DHT22;944;51.574;6.980;2024-02-26T10:29:50;5.20;1.00
1888;DHT22;944;51.574;6.980;2024-02-26T10:32:18;5.40;99.90
1888;DHT22;944;51.574;6.980;2024-02-26T10:35:02;5.30;99.90
1888;DHT22;944;51.574;6.980;2024-02-26T10:37:33;5.20;99.90
1888;DHT22;944;51.574;6.980;2024-02-26T10:40:04;5.50;99.90
1888;DHT22;944;51.574;6.980;2024-02-26T10:42:34;5.30;99.90
1888;DHT22;944;51.574;6.980;2024-02-26T10:48:49;5.40;1.00
1888;DHT22;944;51.574;6.980;2024-02-26T10:51:22;5.40;1.00
1888;DHT22;944;51.574;6.980;2024-02-26T10:53:55;5.40;1.00
1888;DHT22;944;51.574;6.980;2024-02-26T10:56:24;5.40;99.90
1888;DHT22;944;51.574;6.980;2024-02-26T10:58:55;5.40;99.90
1888;DHT22;944;51.574;6.980;2024-02-26T11:01:24;5.50;99.90
1888;DHT22;944;51.574;6.980;2024-02-26T11:03:52;5.50;99.90
1888;DHT22;944;51.574;6.980;2024-02-26T11:06:24;5.60;99.90
1888;DHT22;944;51.574;6.980;2024-02-26T11:08:55;5.60;99.90
1888;DHT22;944;51.574;6.980;2024-02-26T11:11:24;5.70;35.20
1888;DHT22;944;51.574;6.980;2024-02-26T11:13:56;5.70;77.60
1888;DHT22;944;51.574;6.980;2024-02-26T11:16:27;5.80;69.00
1888;DHT22;944;51.574;6.980;2024-02-26T11:18:55;5.80;99.90
1888;DHT22;944;51.574;6.980;2024-02-26T11:21:36;5.80;99.90
1888;DHT22;944;51.574;6.980;2024-02-26T11:24:22;5.90;81.10
1888;DHT22;944;51.574;6.980;2024-02-26T11:26:51;5.90;99.90
1888;DHT22;944;51.574;6.980;2024-02-26T11:29:34;6.00;99.90
1888;DHT22;944;51.574;6.980;2024-02-26T11:32:10;6.00;99.90
1888;DHT22;944;51.574;6.980;2024-02-26T11:34:38;6.00;27.60
1888;DHT22;944;51.574;6.980;2024-02-26T11:37:18;6.00;45.60
1888;DHT22;944;51.574;6.980;2024-02-26T11:39:51;6.00;22.70
1888;DHT22;944;51.574;6.980;2024-02-26T11:42:23;6.20;8.80
1888;DHT22;944;51.574;6.980;2024-02-26T11:44:54;6.00;1.00
1888;DHT22;944;51.574;6.980;2024-02-26T12:55:18;6.30;1.00
1888;DHT22;944;51.574;6.980;2024-02-26T13:15:47;6.60;1.00
1888;DHT22;944;51.574;6.980;2024-02-26T13:22:41;6.70;1.00
1888;DHT22;944;51.574;6.980;2024-02-26T13:47:34;6.70;99.90
1888;DHT22;944;51.574;6.980;2024-02-26T13:50:01;6.70;99.90
1888;DHT22;944;51.574;6.980;2024-02-26T13:52:50;6.70;99.90
1888;DHT22;944;51.574;6.980;2024-02-26T14:03:00;6.80;99.90
1888;DHT22;944;51.574;6.980;2024-02-26T14:23:17;6.90;99.90
1888;DHT22;944;51.574;6.980;2024-02-26T14:26:27;7.00;99.90
1888;DHT22;944;51.574;6.980;2024-02-26T14:29:07;6.90;99.90
1888;DHT22;944;51.574;6.980;2024-02-26T14:31:39;6.90;99.90
1888;DHT22;944;51.574;6.980;2024-02-26T14:37:55;6.80;99.90
1888;DHT22;944;51.574;6.980;2024-02-26T14:40:45;7.00;99.90
1888;DHT22;944;51.574;6.980;2024-02-26T14:43:19;6.80;99.90
1888;DHT22;944;51.574;6.980;2024-02-26T14:45:57;6.80;99.90
1888;DHT22;944;51.574;6.980;2024-02-26T14:48:51;6.80;99.90
1888;DHT22;944;51.574;6.980;2024-02-26T14:52:11;6.90;99.90
1888;DHT22;944;51.574;6.980;2024-02-26T14:54:42;6.90;99.90
1888;DHT22;944;51.574;6.980;2024-02-26T14:57:13;6.80;99.90
1888;DHT22;944;51.574;6.980;2024-02-26T14:59:54;6.90;99.90
1888;DHT22;944;51.574;6.980;2024-02-26T15:02:36;6.90;99.90
1888;DHT22;944;51.574;6.980;2024-02-26T15:08:56;7.00;99.90
1888;DHT22;944;51.574;6.980;2024-02-26T15:34:29;7.10;99.90
1888;DHT22;944;51.574;6.980;2024-02-26T15:37:12;7.10;99.90
1888;DHT22;944;51.574;6.980;2024-02-26T15:40:05;6.90;99.90
1888;DHT22;944;51.574;6.980;2024-02-26T15:53:53;6.70;99.90
1888;DHT22;944;51.574;6.980;2024-02-26T15:56:51;6.80;99.90
1888;DHT22;944;51.574;6.980;2024-02-26T16:03:17;6.70;99.90
1888;DHT22;944;51.574;6.980;2024-02-26T16:05:47;6.70;99.90
1888;DHT22;944;51.574;6.980;2024-02-26T16:08:41;6.70;99.90
1888;DHT22;944;51.574;6.980;2024-02-26T16:11:21;6.80;99.90
1888;DHT22;944;51.574;6.980;2024-02-26T16:13:59;6.70;99.90
1888;DHT22;944;51.574;6.980;2024-02-26T16:16:43;6.80;99.90
1888;DHT22;944;51.574;6.980;2024-02-26T16:19:26;6.70;99.90
1888;DHT22;944;51.574;6.980;2024-02-26T16:21:59;6.80;99.90
1888;DHT22;944;51.574;6.980;2024-02-26T16:24:26;6.80;99.90
1888;DHT22;944;51.574;6.980;2024-02-26T16:34:26;6.70;99.90
1888;DHT22;944;51.574;6.980;2024-02-26T16:40:53;6.80;99.90
1888;DHT22;944;51.574;6.980;2024-02-26T16:43:20;6.70;99.90
1888;DHT22;944;51.574;6.980;2024-02-26T16:45:50;6.70;99.90
1888;DHT22;944;51.574;6.980;2024-02-26T16:52:00;6.80;99.90
1888;DHT22;944;51.574;6.980;2024-02-26T16:54:28;6.80;99.90
1888;DHT22;944;51.574;6.980;2024-02-26T16:57:00;6.70;99.90
1888;DHT22;944;51.574;6.980;2024-02-26T16:59:30;6.80;99.90
1888;DHT22;944;51.574;6.980;2024-02-26T17:01:57;6.70;99.90
1888;DHT22;944;51.574;6.980;2024-02-26T17:04:25;6.70;99.90
1888;DHT22;944;51.574;6.980;2024-02-26T17:06:53;6.80;99.90
1888;DHT22;944;51.574;6.980;2024-02-26T17:09:24;6.80;99.90
1888;DHT22;944;51.574;6.980;2024-02-26T17:15:34;6.80;99.90
1888;DHT22;944;51.574;6.980;2024-02-26T17:18:04;6.80;99.90
1888;DHT22;944;51.574;6.980;2024-02-26T17:20:38;6.70;99.90
1888;DHT22;944;51.574;6.980;2024-02-26T17:26:52;6.70;99.90
1888;DHT22;944;51.574;6.980;2024-02-26T17:29:19;6.90;99.90
1888;DHT22;944;51.574;6.980;2024-02-26T17:31:47;6.80;99.90
1888;DHT22;944;51.574;6.980;2024-02-26T17:34:30;6.90;99.90
1888;DHT22;944;51.574;6.980;2024-02-26T17:37:01;6.90;99.90
1888;DHT22;944;51.574;6.980;2024-02-26T17:39:29;6.90;99.90
1888;DHT22;944;51.574;6.980;2024-02-26T17:45:40;6.80;99.90
1888;DHT22;944;51.574;6.980;2024-02-26T17:48:09;6.90;99.90
1888;DHT22;944;51.574;6.980;2024-02-26T17:50:45;6.80;99.90
1888;DHT22;944;51.574;6.980;2024-02-26T17:57:13;6.80;99.90
1888;DHT22;944;51.574;6.980;2024-02-26T17:59:40;6.90;99.90
1888;DHT22;944;51.574;6.980;2024-02-26T18:02:09;6.80;99.90
1888;DHT22;944;51.574;6.980;2024-02-26T18:04:38;6.90;99.90
1888;DHT22;944;51.574;6.980;2024-02-26T18:07:06;6.90;99.90
1888;DHT22;944;51.574;6.980;2024-02-26T18:09:34;6.80;99.90
1888;DHT22;944;51.574;6.980;2024-02-26T18:12:04;6.70;99.90
1888;DHT22;944;51.574;6.980;2024-02-26T18:14:32;6.70;99.90
1888;DHT22;944;51.574;6.980;2024-02-26T18:17:11;6.70;99.90
1888;DHT22;944;51.574;6.980;2024-02-26T18:20:26;6.80;99.90
1888;DHT22;944;51.574;6.980;2024-02-26T19:37:07;6.60;99.90
1888;DHT22;944;51.574;6.980;2024-02-26T19:40:56;6.60;99.90
1888;DHT22;944;51.574;6.980;2024-02-26T19:58:27;6.30;1.00
1888;DHT22;944;51.574;6.980;2024-02-26T20:05:10;6.20;1.00
1888;DHT22;944;51.574;6.980;2024-02-26T20:22:52;6.00;1.00
1888;DHT22;944;51.574;6.980;2024-02-26T20:26:40;6.00;1.00
1888;DHT22;944;51.574;6.980;2024-02-26T20:45:00;6.00;1.00
1888;DHT22;944;51.574;6.980;2024-02-26T20:47:35;6.00;1.00
1888;DHT22;944;51.574;6.980;2024-02-26T20:50:02;6.00;1.00
1888;DHT22;944;51.574;6.980;2024-02-26T20:52:31;6.00;1.00
1888;DHT22;944;51.574;6.980;2024-02-26T20:58:52;6.00;1.00
1888;DHT22;944;51.574;6.980;2024-02-26T21:12:10;5.90;1.00
1888;DHT22;944;51.574;6.980;2024-02-26T21:14:53;5.90;1.00
1888;DHT22;944;51.574;6.980;2024-02-26T21:17:29;5.90;1.00
1888;DHT22;944;51.574;6.980;2024-02-26T21:20:04;5.90;1.00
1888;DHT22;944;51.574;6.980;2024-02-26T21:22:33;5.90;1.00
1888;DHT22;944;51.574;6.980;2024-02-26T21:25:25;5.80;1.00
1888;DHT22;944;51.574;6.980;2024-02-26T21:27:52;6.00;1.00
1888;DHT22;944;51.574;6.980;2024-02-26T21:30:24;5.80;1.00
1888;DHT22;944;51.574;6.980;2024-02-26T21:32:55;5.80;1.00
1888;DHT22;944;51.574;6.980;2024-02-26T21:35:26;5.80;1.00
1888;DHT22;944;51.574;6.980;2024-02-26T21:37:56;5.80;1.00
1888;DHT22;944;51.574;6.980;2024-02-26T21:40:27;5.80;1.00
1888;DHT22;944;51.574;6.980;2024-02-26T21:42:56;6.00;1.00
1888;DHT22;944;51.574;6.980;2024-02-26T21:45:41;5.80;1.00
1888;DHT22;944;51.574;6.980;2024-02-26T21:51:50;5.80;1.00
1888;DHT22;944;51.574;6.980;2024-02-26T21:54:17;5.80;1.00
1888;DHT22;944;51.574;6.980;2024-02-26T21:56:50;5.70;1.00
1888;DHT22;944;51.574;6.980;2024-02-26T21:59:29;5.70;1.00
1888;DHT22;944;51.574;6.980;2024-02-26T22:02:07;5.70;1.00
1888;DHT22;944;51.574;6.980;2024-02-26T22:04:45;5.70;1.00
1888;DHT22;944;51.574;6.980;2024-02-26T22:07:12;5.70;1.00
1888;DHT22;944;51.574;6.980;2024-02-26T22:09:41;5.70;1.00
1888;DHT22;944;51.574;6.980;2024-02-26T22:12:10;5.80;1.00
1888;DHT22;944;51.574;6.980;2024-02-26T22:14:50;5.90;1.00
1888;DHT22;944;51.574;6.980;2024-02-26T22:17:20;5.80;1.00
1888;DHT22;944;51.574;6.980;2024-02-26T22:19:49;5.70;1.00
1888;DHT22;944;51.574;6.980;2024-02-26T22:22:16;5.70;1.00
1888;DHT22;944;51.574;6.980;2024-02-26T22:24:43;5.70;1.00
1888;DHT22;944;51.574;6.980;2024-02-26T22:27:12;5.70;1.00
1888;DHT22;944;51.574;6.980;2024-02-26T22:29:43;5.70;1.00
1888;DHT22;944;51.574;6.980;2024-02-26T22:32:12;5.80;1.00
1888;DHT22;944;51.574;6.980;2024-02-26T22:34:40;5.70;1.00
1888;DHT22;944;51.574;6.980;2024-02-26T22:37:07;5.70;1.00
1888;DHT22;944;51.574;6.980;2024-02-26T22:39:34;5.70;1.00
1888;DHT22;944;51.574;6.980;2024-02-26T22:42:01;5.70;1.00
1888;DHT22;944;51.574;6.980;2024-02-26T22:44:28;5.80;1.00
1888;DHT22;944;51.574;6.980;2024-02-26T22:46:56;5.70;1.00
1888;DHT22;944;51.574;6.980;2024-02-26T22:49:28;5.60;1.00
1888;DHT22;944;51.574;6.980;2024-02-26T22:52:04;5.70;1.00
1888;DHT22;944;51.574;6.980;2024-02-26T22:54:32;5.70;1.00
1888;DHT22;944;51.574;6.980;2024-02-26T22:57:02;5.70;1.00
1888;DHT22;944;51.574;6.980;2024-02-26T23:35:34;5.70;1.00
1888;DHT22;944;51.574;6.980;2024-02-26T23:38:50;5.50;1.00
1888;DHT22;944;51.574;6.980;2024-02-26T23:42:36;5.70;1.00
1888;DHT22;944;51.574;6.980;2024-02-26T23:45:45;5.60;1.00
1888;DHT22;944;51.574;6.980;2024-02-26T23:52:18;5.60;1.00
1888;DHT22;944;51.574;6.980;2024-02-26T23:58:42;5.60;1.00
